Página principal
METAR-TAF:

METAR-TAF

Aeroportos :

Rundu, Namíbia

latitude: 17-57-20S, longitude: 019-43-25E, altura: 1106 m

Observação actual do tempo

O boletim foi feito há 9 horas e 34 minutos, às 14:00 UTC
Vento 5 kt de es-nordeste
Temperatura
Pressão
Visibilidade 10 km ou mais
Nuvens dispersasa uma altura de 4500 ft

METAR: FYRU 081400Z 06005KT 9999 SCT045 ///// Q////

Hora: 01:34 (23:34 UTC)

Previsão

O boletim foi feito há 9 horas e 34 minutos, às 14:00 UTC
Previsão válida de 08 às 15 UTC a 08 às 24 UTC
Vento 6 kt de norte
Visibilidade 10 km ou mais
Nuvens dispersasa uma altura de 4500 ft
Tornando-se
de 08 às 16 UTC a 08 às 18 UTC
Vento kt de norte

TAF: FYRU 081400Z 0815/0824 36006KT 9999 SCT045 BECMG 0816/0818 00000KT NSC

Observações e previsões do tempo de mais de 4000 aeroportos (mensagens METAR e TAF).

As estações disponíveis são os pontos amarelos e vermelhos sobre o mapa.

Mova o rato sobre o mapa para ver o nome da estação.

Depois clique no ponto para visualizar as observações e previsões meteorológicas.

Para alterar o mapa : clique nos botões verdes com uma cruz preta para aumentar o zoom; no botão verde com uma pitada de zoom; ou nas setas verdes para mapas adjacentes.


METAR-TAF: